Turvania, Brazil
Current Conditions -  °F | °C
As of 11:00 AM on Friday 31 Oct 2014 (Local Time) from SBGO Reporting Station
Broken Clouds Broken Clouds  
Wind Chill: 24°   Ceiling: 1900
Heat Index: 24°   Visibility: 6mi
Dew Point: 18°   Wind: 10mph
Humidity: 69%   Direction: 350°N
Pressure: 30.09"   Gusts: NA
Location:  16.61°S, 50.13°W
Report Text: SBGO 311300Z 35009KT 9999 BKN019 BKN100 24/18 Q1019
Loading
Personal Weather Stations






























Interactive Weather Map
Tropical Storm Tracking
New forecast layout! Learn more

10-Day Weather Forecast

Advertisements
Track Severe Weather on mobile